createdAt,value
2022-08-21T00:01:14.152Z,98702.66
2022-08-21T00:04:05.819Z,98701.38
2022-08-21T00:06:51.883Z,98700.91
2022-08-21T00:09:37.247Z,98694.13
2022-08-21T00:12:22.597Z,98698.56
2022-08-21T00:15:10.688Z,98702.75
2022-08-21T00:17:57.629Z,98703.31
2022-08-21T00:20:44.369Z,98706.22
2022-08-21T00:23:29.335Z,98699.75
2022-08-21T00:26:14.472Z,98706.31
2022-08-21T00:28:59.913Z,98708.16
2022-08-21T00:31:46.724Z,98698.28
2022-08-21T00:34:31.937Z,98698.00
2022-08-21T00:37:16.672Z,98704.28
2022-08-21T00:40:02.031Z,98698.78
2022-08-21T00:42:53.484Z,98706.59
2022-08-21T00:45:45.222Z,98701.22
2022-08-21T00:48:30.787Z,98691.81
2022-08-21T00:51:26.378Z,98704.09
2022-08-21T00:54:17.984Z,98699.16
2022-08-21T00:57:11.279Z,98699.91
2022-08-21T01:00:00.414Z,98698.41
2022-08-21T01:02:46.221Z,98697.63
2022-08-21T01:05:31.312Z,98700.53
2022-08-21T01:08:19.281Z,98697.13
2022-08-21T01:11:04.713Z,98690.38
2022-08-21T01:13:50.398Z,98697.13
2022-08-21T01:16:35.415Z,98696.66
2022-08-21T01:19:22.706Z,98695.88
2022-08-21T01:22:08.999Z,98685.44
2022-08-21T01:24:53.800Z,98692.78
2022-08-21T01:27:39.487Z,98688.06
2022-08-21T01:30:27.873Z,98690.94
2022-08-21T01:33:12.833Z,98692.78
2022-08-21T01:35:57.807Z,98693.53
2022-08-21T01:38:42.706Z,98691.72
2022-08-21T01:41:27.607Z,98685.72
2022-08-21T01:44:12.515Z,98685.72
2022-08-21T01:47:00.152Z,98697.72
2022-08-21T01:49:46.144Z,98686.03
2022-08-21T01:52:31.104Z,98688.94
2022-08-21T01:55:18.408Z,98688.16
2022-08-21T01:58:03.339Z,98686.59
2022-08-21T02:00:50.219Z,98688.16
2022-08-21T02:03:38.702Z,98680.59
2022-08-21T02:06:24.258Z,98681.69
2022-08-21T02:09:11.176Z,98690.25
2022-08-21T02:11:57.097Z,98683.22
2022-08-21T02:14:41.908Z,98681.38
2022-08-21T02:17:27.187Z,98685.03
2022-08-21T02:20:20.375Z,98683.22
2022-08-21T02:23:07.668Z,98687.66
2022-08-21T02:25:52.659Z,98691.81
2022-08-21T02:28:38.594Z,98689.19
2022-08-21T02:31:23.712Z,98683.22
2022-08-21T02:34:09.320Z,98680.44
2022-08-21T02:36:58.627Z,98677.31
2022-08-21T02:39:45.078Z,98675.78
2022-08-21T02:42:30.792Z,98688.34
2022-08-21T02:45:17.900Z,98676.66
2022-08-21T02:48:07.746Z,98679.53
2022-08-21T02:50:56.893Z,98675.66
2022-08-21T02:53:42.865Z,98683.22
2022-08-21T02:56:31.507Z,98685.84
2022-08-21T02:59:16.572Z,98685.63
2022-08-21T03:02:01.786Z,98690.84
2022-08-21T03:04:46.902Z,98687.94
2022-08-21T03:07:32.009Z,98690.53
2022-08-21T03:10:17.154Z,98684.53
2022-08-21T03:13:03.610Z,98690.84
2022-08-21T03:15:49.959Z,98693.16
2022-08-21T03:18:35.775Z,98685.31
2022-08-21T03:21:20.969Z,98680.09
2022-08-21T03:24:07.246Z,98685.06
2022-08-21T03:26:52.711Z,98684.47
2022-08-21T03:29:37.687Z,98683.41
2022-08-21T03:32:23.106Z,98682.81
2022-08-21T03:35:09.225Z,98674.44
2022-08-21T03:37:56.003Z,98689.78
2022-08-21T03:40:42.305Z,98690.75
2022-08-21T03:43:31.297Z,98695.88
2022-08-21T03:46:17.082Z,98691.03
2022-08-21T03:49:02.180Z,98686.19
2022-08-21T03:51:47.211Z,98690.09
2022-08-21T03:54:32.335Z,98682.72
2022-08-21T03:57:17.595Z,98683.59
2022-08-21T04:00:04.977Z,98685.09
2022-08-21T04:02:50.829Z,98688.78
2022-08-21T04:05:36.678Z,98685.72
2022-08-21T04:08:22.371Z,98684.44
2022-08-21T04:11:08.156Z,98669.84
2022-08-21T04:13:53.831Z,98687.19
2022-08-21T04:16:38.824Z,98686.03
2022-08-21T04:19:24.369Z,98688.16
2022-08-21T04:22:09.317Z,98692.31
2022-08-21T04:24:54.389Z,98689.41
2022-08-21T04:27:40.591Z,98695.56
2022-08-21T04:30:28.144Z,98686.13
2022-08-21T04:33:13.789Z,98684.63
2022-08-21T04:35:58.715Z,98681.97
2022-08-21T04:38:44.771Z,98683.91
2022-08-21T04:41:30.517Z,98678.47
2022-08-21T04:44:15.350Z,98677.41
2022-08-21T04:47:00.355Z,98678.66
2022-08-21T04:49:45.846Z,98676.09
2022-08-21T04:52:31.169Z,98677.03
2022-08-21T04:55:18.025Z,98678.44
2022-08-21T04:58:03.129Z,98672.16
2022-08-21T05:00:48.467Z,98669.09
2022-08-21T05:03:35.085Z,98663.88
2022-08-21T05:06:20.876Z,98665.13
2022-08-21T05:09:06.413Z,98668.22
2022-08-21T05:11:53.205Z,98664.19
2022-08-21T05:14:38.201Z,98666.56
2022-08-21T05:17:23.886Z,98660.81
2022-08-21T05:20:10.608Z,98666.03
2022-08-21T05:22:56.396Z,98673.94
2022-08-21T05:25:42.189Z,98691.28
2022-08-21T05:28:27.644Z,98689.63
2022-08-21T05:31:13.204Z,98690.41
2022-08-21T05:33:57.926Z,98689.78
2022-08-21T05:36:42.921Z,98688.69
2022-08-21T05:39:28.023Z,98699.44
2022-08-21T05:42:33.584Z,98704.66
2022-08-21T05:45:18.826Z,98699.88
2022-08-21T05:48:24.624Z,98699.72
2022-08-21T05:51:12.882Z,98697.66
2022-08-21T05:53:58.308Z,98700.34
2022-08-21T05:56:44.994Z,98708.34
2022-08-21T05:59:29.875Z,98697.69
2022-08-21T06:02:17.181Z,98693.25
2022-08-21T06:05:02.384Z,98700.81
2022-08-21T06:07:47.643Z,98699.69
2022-08-21T06:10:32.661Z,98688.47
2022-08-21T06:13:19.315Z,98689.16
2022-08-21T06:16:15.647Z,98684.53
2022-08-21T06:19:03.000Z,98690.41
2022-08-21T06:21:48.338Z,98686.56
2022-08-21T06:24:33.456Z,98701.34
2022-08-21T06:27:18.374Z,98691.16
2022-08-21T06:30:05.226Z,98699.78
2022-08-21T06:32:50.274Z,98699.94
2022-08-21T06:35:36.278Z,98704.13
2022-08-21T06:38:21.218Z,98701.06
2022-08-21T06:41:07.562Z,98696.75
2022-08-21T06:43:56.291Z,98692.28
2022-08-21T06:46:41.242Z,98690.88
2022-08-21T06:49:26.720Z,98696.09
2022-08-21T06:52:12.960Z,98691.13
2022-08-21T06:54:58.164Z,98690.66
2022-08-21T06:57:43.018Z,98689.69
2022-08-21T07:00:33.859Z,98679.59
2022-08-21T07:03:21.719Z,98672.84
2022-08-21T07:06:08.706Z,98674.03
2022-08-21T07:08:53.758Z,98674.84
2022-08-21T07:11:45.045Z,98682.66
2022-08-21T07:14:32.710Z,98674.81
2022-08-21T07:17:17.733Z,98672.25
2022-08-21T07:20:04.388Z,98676.56
2022-08-21T07:22:49.547Z,98673.69
2022-08-21T07:25:34.899Z,98669.97
2022-08-21T07:28:20.253Z,98670.59
2022-08-21T07:31:05.895Z,98677.16
2022-08-21T07:33:51.975Z,98667.69
2022-08-21T07:36:37.256Z,98674.41
2022-08-21T07:39:24.067Z,98672.97
2022-08-21T07:42:10.532Z,98676.97
2022-08-21T07:44:56.439Z,98678.59
2022-08-21T07:47:42.712Z,98676.47
2022-08-21T07:50:27.955Z,98673.75
2022-08-21T07:53:13.194Z,98678.53
2022-08-21T07:55:58.922Z,98674.16
2022-08-21T07:58:44.260Z,98672.50
2022-08-21T08:01:29.814Z,98678.91
2022-08-21T08:04:16.047Z,98668.41
2022-08-21T08:07:00.779Z,98671.41
2022-08-21T08:09:46.267Z,98671.06
2022-08-21T08:12:31.562Z,98667.09
2022-08-21T08:15:23.235Z,98667.69
2022-08-21T08:18:08.121Z,98662.91
2022-08-21T08:20:53.570Z,98657.47
2022-08-21T08:23:39.185Z,98657.59
2022-08-21T08:26:24.282Z,98664.31
2022-08-21T08:29:09.232Z,98660.06
2022-08-21T08:31:54.295Z,98661.81
2022-08-21T08:34:40.251Z,98660.94
2022-08-21T08:37:25.796Z,98658.31
2022-08-21T08:40:25.443Z,98655.06
2022-08-21T08:43:14.470Z,98647.38
2022-08-21T08:46:04.942Z,98644.75
2022-08-21T08:49:35.407Z,98656.53
2022-08-21T08:52:31.755Z,98654.59
2022-08-21T08:55:26.675Z,98651.81
2022-08-21T08:58:25.152Z,98649.28
2022-08-21T09:01:18.333Z,98655.66
2022-08-21T09:04:03.511Z,98646.03
2022-08-21T09:06:56.367Z,98647.78
2022-08-21T09:10:03.305Z,98647.66
2022-08-21T09:13:17.068Z,98653.66
2022-08-21T09:16:11.553Z,98656.88
2022-08-21T09:19:18.592Z,98654.25
2022-08-21T09:22:24.571Z,98645.91
2022-08-21T09:25:26.107Z,98645.81
2022-08-21T09:28:13.407Z,98646.00
2022-08-21T09:31:03.302Z,98638.56
2022-08-21T09:33:48.193Z,98630.56
2022-08-21T09:36:48.808Z,98650.53
2022-08-21T09:39:41.903Z,98643.53
2022-08-21T09:42:34.639Z,98640.88
2022-08-21T09:45:19.450Z,98635.06
2022-08-21T09:48:12.147Z,98641.75
2022-08-21T09:51:09.177Z,98638.56
2022-08-21T09:54:16.836Z,98641.06
2022-08-21T09:57:35.828Z,98630.75
2022-08-21T10:00:30.490Z,98630.09
2022-08-21T10:03:21.997Z,98633.50
2022-08-21T10:06:11.106Z,98638.09
2022-08-21T10:09:07.610Z,98635.81
2022-08-21T10:12:16.062Z,98633.25
2022-08-21T10:15:34.224Z,98638.53
2022-08-21T10:18:28.716Z,98636.16
2022-08-21T10:21:22.613Z,98630.50
2022-08-21T10:24:43.769Z,98629.59
2022-08-21T10:27:38.027Z,98643.16
2022-08-21T10:30:52.909Z,98640.72
2022-08-21T10:34:10.162Z,98635.28
2022-08-21T10:37:29.154Z,98625.88
2022-08-21T10:40:22.593Z,98623.25
2022-08-21T10:43:26.639Z,98624.59
2022-08-21T10:46:20.544Z,98627.34
2022-08-21T10:49:23.681Z,98641.22
2022-08-21T10:52:39.376Z,98632.63
2022-08-21T10:55:53.156Z,98632.47
2022-08-21T10:58:45.732Z,98638.06
2022-08-21T11:01:59.566Z,98625.50
2022-08-21T11:04:51.063Z,98632.81
2022-08-21T11:08:05.755Z,98629.81
2022-08-21T11:11:36.242Z,98629.47
2022-08-21T11:14:31.971Z,98622.03
2022-08-21T11:17:22.127Z,98619.03
2022-08-21T11:20:27.193Z,98609.72
2022-08-21T11:23:16.839Z,98618.19
2022-08-21T11:26:09.226Z,98615.00
2022-08-21T11:29:25.227Z,98626.94
2022-08-21T11:32:27.910Z,98630.69
2022-08-21T11:35:31.703Z,98620.16
2022-08-21T11:38:28.663Z,98624.22
2022-08-21T11:41:37.446Z,98613.06
2022-08-21T11:44:41.292Z,98620.91
2022-08-21T11:47:41.190Z,98623.53
2022-08-21T11:50:35.878Z,98625.69
2022-08-21T11:53:54.310Z,98623.03
2022-08-21T11:56:46.311Z,98626.75
2022-08-21T11:59:43.762Z,98628.56
2022-08-21T12:02:34.471Z,98629.06
2022-08-21T12:05:40.453Z,98634.31
2022-08-21T12:08:58.406Z,98630.59
2022-08-21T12:11:49.198Z,98626.75
2022-08-21T12:14:48.362Z,98625.50
2022-08-21T12:17:40.158Z,98617.44
2022-08-21T12:20:57.447Z,98621.38
2022-08-21T12:24:01.560Z,98617.00
2022-08-21T12:26:54.082Z,98616.44
2022-08-21T12:29:39.745Z,98619.41
2022-08-21T12:32:43.046Z,98619.78
2022-08-21T12:35:40.035Z,98630.03
2022-08-21T12:38:31.893Z,98623.63
2022-08-21T12:41:23.179Z,98621.78
2022-08-21T12:44:13.096Z,98625.19
2022-08-21T12:47:00.492Z,98629.47
2022-08-21T12:49:55.035Z,98618.56
2022-08-21T12:53:20.797Z,98609.59
2022-08-21T12:56:11.513Z,98607.38
2022-08-21T12:59:03.406Z,98600.84
2022-08-21T13:01:52.118Z,98593.47
2022-08-21T13:04:41.870Z,98592.03
2022-08-21T13:07:30.314Z,98592.09
2022-08-21T13:10:23.427Z,98597.13
2022-08-21T13:13:16.925Z,98592.69
2022-08-21T13:16:10.932Z,98593.19
2022-08-21T13:18:58.139Z,98595.06
2022-08-21T13:21:44.580Z,98589.78
2022-08-21T13:24:45.139Z,98585.22
2022-08-21T13:27:31.057Z,98590.84
2022-08-21T13:30:21.426Z,98586.09
2022-08-21T13:33:12.869Z,98578.31
2022-08-21T13:36:01.096Z,98582.97
2022-08-21T13:38:46.582Z,98582.03
2022-08-21T13:41:37.110Z,98583.25
2022-08-21T13:44:45.889Z,98594.31
2022-08-21T13:47:31.056Z,98585.75
2022-08-21T13:50:18.826Z,98585.84
2022-08-21T13:53:07.104Z,98580.72
2022-08-21T13:55:52.325Z,98576.78
2022-08-21T13:58:46.854Z,98574.16
2022-08-21T14:01:36.343Z,98581.16
2022-08-21T14:04:37.157Z,98576.13
2022-08-21T14:07:32.781Z,98574.00
2022-08-21T14:10:21.616Z,98573.03
2022-08-21T14:13:07.889Z,98571.47
2022-08-21T14:15:59.621Z,98566.72
2022-08-21T14:18:47.406Z,98561.13
2022-08-21T14:21:44.549Z,98565.66
2022-08-21T14:24:31.171Z,98567.78
2022-08-21T14:27:18.400Z,98562.06
2022-08-21T14:30:12.344Z,98553.25
2022-08-21T14:33:00.043Z,98560.56
2022-08-21T14:35:45.637Z,98558.81
2022-08-21T14:38:30.530Z,98560.47
2022-08-21T14:41:18.915Z,98563.38
2022-08-21T14:44:08.094Z,98562.34
2022-08-21T14:46:56.970Z,98562.59
2022-08-21T14:49:41.974Z,98576.78
2022-08-21T14:52:26.827Z,98566.81
2022-08-21T14:55:16.224Z,98567.34
2022-08-21T14:58:01.178Z,98563.97
2022-08-21T15:00:46.016Z,98567.63
2022-08-21T15:03:31.588Z,98575.41
2022-08-21T15:06:18.164Z,98575.22
2022-08-21T15:09:05.325Z,98581.56
2022-08-21T15:11:52.676Z,98569.09
2022-08-21T15:14:40.704Z,98564.53
2022-08-21T15:17:26.287Z,98566.75
2022-08-21T15:20:11.125Z,98556.59
2022-08-21T15:22:56.213Z,98562.16
2022-08-21T15:25:43.316Z,98546.81
2022-08-21T15:28:31.579Z,98547.91
2022-08-21T15:31:17.185Z,98554.66
2022-08-21T15:34:03.184Z,98553.00
2022-08-21T15:36:48.323Z,98550.28
2022-08-21T15:39:37.281Z,98558.81
2022-08-21T15:42:24.959Z,98555.41
2022-08-21T15:45:11.982Z,98559.16
2022-08-21T15:47:57.476Z,98553.03
2022-08-21T15:50:42.106Z,98557.88
2022-08-21T15:53:27.530Z,98550.63
2022-08-21T15:56:26.312Z,98555.63
2022-08-21T15:59:19.396Z,98551.44
2022-08-21T16:02:05.054Z,98554.44
2022-08-21T16:04:50.182Z,98553.19
2022-08-21T16:07:35.589Z,98555.75
2022-08-21T16:10:23.002Z,98559.00
2022-08-21T16:13:26.211Z,98561.38
2022-08-21T16:16:12.537Z,98559.94
2022-08-21T16:18:57.445Z,98543.84
2022-08-21T16:21:42.792Z,98540.94
2022-08-21T16:24:27.645Z,98550.94
2022-08-21T16:27:13.528Z,98539.16
2022-08-21T16:29:59.031Z,98546.84
2022-08-21T16:32:44.361Z,98545.06
2022-08-21T16:35:29.494Z,98542.56
2022-08-21T16:38:14.991Z,98546.94
2022-08-21T16:41:00.042Z,98550.81
2022-08-21T16:44:11.300Z,98550.53
2022-08-21T16:46:56.328Z,98556.56
2022-08-21T16:49:41.487Z,98565.84
2022-08-21T16:52:26.418Z,98564.59
2022-08-21T16:55:11.566Z,98562.34
2022-08-21T16:57:56.562Z,98557.88
2022-08-21T17:00:42.534Z,98556.75
2022-08-21T17:03:38.568Z,98564.34
2022-08-21T17:06:23.663Z,98561.59
2022-08-21T17:09:14.859Z,98569.09
2022-08-21T17:11:59.645Z,98567.75
2022-08-21T17:14:44.813Z,98577.78
2022-08-21T17:17:29.771Z,98580.69
2022-08-21T17:20:15.092Z,98578.03
2022-08-21T17:23:00.383Z,98581.00
2022-08-21T17:25:47.965Z,98584.91
2022-08-21T17:28:35.712Z,98582.03
2022-08-21T17:31:20.962Z,98581.03
2022-08-21T17:34:06.980Z,98578.78
2022-08-21T17:36:52.708Z,98581.44
2022-08-21T17:39:38.234Z,98581.81
2022-08-21T17:42:24.649Z,98586.03
2022-08-21T17:45:34.636Z,98581.59
2022-08-21T17:48:25.465Z,98578.84
2022-08-21T17:51:11.272Z,98579.38
2022-08-21T17:53:56.770Z,98579.47
2022-08-21T17:56:42.245Z,98580.28
2022-08-21T17:59:27.325Z,98588.34
2022-08-21T18:02:19.534Z,98586.19
2022-08-21T18:05:08.798Z,98582.34
2022-08-21T18:07:53.871Z,98576.34
2022-08-21T18:10:42.033Z,98579.25
2022-08-21T18:13:30.658Z,98577.13
2022-08-21T18:16:18.838Z,98573.09
2022-08-21T18:19:08.563Z,98578.03
2022-08-21T18:21:55.460Z,98577.75
2022-08-21T18:24:40.487Z,98573.56
2022-08-21T18:27:29.570Z,98577.44
2022-08-21T18:30:21.525Z,98574.53
2022-08-21T18:33:07.555Z,98573.88
2022-08-21T18:35:52.712Z,98572.34
2022-08-21T18:38:38.139Z,98576.66
2022-08-21T18:41:23.549Z,98577.25
2022-08-21T18:44:09.481Z,98571.72
2022-08-21T18:46:59.320Z,98572.19
2022-08-21T18:49:44.238Z,98573.75
2022-08-21T18:52:29.128Z,98572.66
2022-08-21T18:55:15.828Z,98568.97
2022-08-21T18:58:02.187Z,98569.75
2022-08-21T19:00:50.379Z,98572.66
2022-08-21T19:03:35.758Z,98566.78
2022-08-21T19:06:20.881Z,98575.09
2022-08-21T19:09:09.368Z,98567.56
2022-08-21T19:11:54.418Z,98565.09
2022-08-21T19:14:39.616Z,98577.25
2022-08-21T19:17:25.415Z,98582.81
2022-08-21T19:20:25.524Z,98583.13
2022-08-21T19:23:13.620Z,98582.19
2022-08-21T19:26:01.814Z,98584.81
2022-08-21T19:28:51.489Z,98592.97
2022-08-21T19:31:42.605Z,98609.16
2022-08-21T19:34:29.130Z,98620.56
2022-08-21T19:37:15.757Z,98627.47
2022-08-21T19:40:00.539Z,98631.97
2022-08-21T19:42:46.089Z,98653.69
2022-08-21T19:45:35.756Z,98654.88
2022-08-21T19:48:21.570Z,98669.56
2022-08-21T19:51:06.641Z,98673.53
2022-08-21T19:53:57.258Z,98670.56
2022-08-21T19:56:43.379Z,98661.19
2022-08-21T19:59:28.660Z,98677.47
2022-08-21T20:02:17.473Z,98670.69
2022-08-21T20:05:04.628Z,98663.94
2022-08-21T20:07:49.568Z,98673.63
2022-08-21T20:10:35.261Z,98685.47
2022-08-21T20:13:22.703Z,98680.53
2022-08-21T20:16:11.768Z,98675.88
2022-08-21T20:18:57.770Z,98680.78
2022-08-21T20:21:44.595Z,98698.44
2022-08-21T20:24:29.554Z,98691.31
2022-08-21T20:27:21.428Z,98671.50
2022-08-21T20:30:08.420Z,98661.19
2022-08-21T20:32:53.618Z,98649.91
2022-08-21T20:35:44.682Z,98657.38
2022-08-21T20:38:29.274Z,98662.44
2022-08-21T20:41:21.301Z,98659.34
2022-08-21T20:44:16.418Z,98659.34
2022-08-21T20:47:08.540Z,98651.50
2022-08-21T20:49:59.510Z,98648.72
2022-08-21T20:52:49.048Z,98655.56
2022-08-21T20:55:39.607Z,98657.91
2022-08-21T20:58:34.035Z,98653.47
2022-08-21T21:01:20.016Z,98644.38
2022-08-21T21:04:15.902Z,98645.44
2022-08-21T21:07:07.016Z,98631.00
2022-08-21T21:09:56.649Z,98622.59
2022-08-21T21:12:56.794Z,98616.59
2022-08-21T21:15:43.064Z,98619.50
2022-08-21T21:18:37.800Z,98635.47
2022-08-21T21:21:40.171Z,98633.94
2022-08-21T21:25:01.035Z,98643.03
2022-08-21T21:27:58.780Z,98629.97
2022-08-21T21:30:46.964Z,98629.19
2022-08-21T21:33:36.971Z,98627.94
2022-08-21T21:36:44.040Z,98624.53
2022-08-21T21:40:15.937Z,98613.31
2022-08-21T21:43:03.749Z,98617.00
2022-08-21T21:46:03.387Z,98622.25
2022-08-21T21:49:23.809Z,98622.25
2022-08-21T21:52:40.897Z,98614.09
2022-08-21T21:55:50.393Z,98611.19
2022-08-21T21:58:41.659Z,98599.88
2022-08-21T22:01:31.860Z,98604.78
2022-08-21T22:04:51.368Z,98600.31
2022-08-21T22:07:43.716Z,98594.78
2022-08-21T22:10:58.565Z,98607.56
2022-08-21T22:14:03.555Z,98612.81
2022-08-21T22:16:50.759Z,98618.03
2022-08-21T22:19:41.979Z,98608.63
2022-08-21T22:22:29.523Z,98601.69
2022-08-21T22:25:25.477Z,98598.91
2022-08-21T22:28:18.368Z,98596.88
2022-08-21T22:31:33.583Z,98599.97
2022-08-21T22:34:19.482Z,98602.09
2022-08-21T22:37:34.299Z,98598.06
2022-08-21T22:40:28.408Z,98588.03
2022-08-21T22:43:26.213Z,98592.41
2022-08-21T22:46:18.181Z,98592.53
2022-08-21T22:49:07.109Z,98584.22
2022-08-21T22:52:05.384Z,98586.06
2022-08-21T22:54:53.179Z,98580.94
2022-08-21T22:57:39.157Z,98576.59
2022-08-21T23:00:51.450Z,98586.06
2022-08-21T23:03:45.790Z,98589.84
2022-08-21T23:06:39.770Z,98585.78
2022-08-21T23:09:27.332Z,98582.50
2022-08-21T23:12:35.644Z,98586.59
2022-08-21T23:15:21.244Z,98584.38
2022-08-21T23:18:13.515Z,98584.97
2022-08-21T23:21:15.238Z,98575.41
2022-08-21T23:24:19.286Z,98571.06
2022-08-21T23:27:32.562Z,98576.09
2022-08-21T23:31:02.869Z,98575.72
2022-08-21T23:34:08.365Z,98574.47
2022-08-21T23:37:23.219Z,98568.75
2022-08-21T23:40:32.835Z,98580.03
2022-08-21T23:43:52.140Z,98581.41
2022-08-21T23:46:51.947Z,98584.88
2022-08-21T23:49:47.948Z,98586.50
2022-08-21T23:52:32.666Z,98583.41
2022-08-21T23:55:55.284Z,98583.22
2022-08-21T23:59:19.156Z,98585.91
